Welcome to Trans World Virtual Airlines!

Welcome TWVA's Newest Pilot:

TWA2310 Ziad Uddin

Not a Trans World pilot yet?
Apply Now!




Sign-in with your pilot id or email, or register

Flight TWA698

  • Submitted By: Austin Hill
  • Departure Airport: Lambert-Saint Louis International Airport (KSTL)
  • Arrival Airport: Tampa International Airport (KTPA)
  • Aircraft: MD-83 (N44266TW)
  • Flight Time: 2.20
  • Date Submitted: 04/11/2018
  • Route: STL PLESS GHM LGC J73 SZW J43 PIE KTPA
  • Status: Accepted
Flight Details
Gross Revenue:
(109 load / $ 95.00 per unit
$ 10, 355.00
Fuel Cost:
(27201 fuel used @ 0.8 / unit)
$ 21, 760.80

Comments

Commenter Comment
Austin Hill KSTL 111241Z 21104KT 10SM BKN100 10/01 A3007 // KTPA 111437Z 02507KT 10SM CLR 19/12 A3015

Route Map